sensor_id;sensor_type;location;lat;lon;timestamp;P1;durP1;ratioP1;P2;durP2;ratioP2
73575;SDS011;61859;49.204;8.140;2023-07-29T00:01:08;0.93;;;0.93;;
73575;SDS011;61859;49.204;8.140;2023-07-29T00:03:33;1.30;;;1.20;;
73575;SDS011;61859;49.204;8.140;2023-07-29T00:05:59;1.50;;;1.40;;
73575;SDS011;61859;49.204;8.140;2023-07-29T00:08:24;2.00;;;1.10;;
73575;SDS011;61859;49.204;8.140;2023-07-29T00:10:50;2.53;;;1.07;;
73575;SDS011;61859;49.204;8.140;2023-07-29T00:13:15;1.07;;;1.07;;
73575;SDS011;61859;49.204;8.140;2023-07-29T00:15:41;2.80;;;0.93;;
73575;SDS011;61859;49.204;8.140;2023-07-29T00:18:06;2.73;;;1.60;;
73575;SDS011;61859;49.204;8.140;2023-07-29T00:20:32;1.53;;;1.20;;
73575;SDS011;61859;49.204;8.140;2023-07-29T00:22:57;1.67;;;1.57;;
73575;SDS011;61859;49.204;8.140;2023-07-29T00:25:24;1.60;;;1.50;;
73575;SDS011;61859;49.204;8.140;2023-07-29T00:27:49;4.27;;;1.60;;
73575;SDS011;61859;49.204;8.140;2023-07-29T00:30:15;1.53;;;1.43;;
73575;SDS011;61859;49.204;8.140;2023-07-29T00:32:40;1.57;;;1.47;;
73575;SDS011;61859;49.204;8.140;2023-07-29T00:35:06;1.67;;;1.50;;
73575;SDS011;61859;49.204;8.140;2023-07-29T00:37:32;2.13;;;1.50;;
73575;SDS011;61859;49.204;8.140;2023-07-29T00:39:58;1.73;;;1.63;;
73575;SDS011;61859;49.204;8.140;2023-07-29T00:42:23;3.90;;;1.80;;
73575;SDS011;61859;49.204;8.140;2023-07-29T00:44:50;2.70;;;1.37;;
73575;SDS011;61859;49.204;8.140;2023-07-29T00:47:15;1.73;;;1.63;;
73575;SDS011;61859;49.204;8.140;2023-07-29T00:49:42;1.50;;;1.40;;
73575;SDS011;61859;49.204;8.140;2023-07-29T00:52:08;2.10;;;1.90;;
73575;SDS011;61859;49.204;8.140;2023-07-29T00:54:37;3.07;;;1.73;;
73575;SDS011;61859;49.204;8.140;2023-07-29T00:57:03;1.70;;;1.60;;
73575;SDS011;61859;49.204;8.140;2023-07-29T00:59:28;1.80;;;1.63;;
73575;SDS011;61859;49.204;8.140;2023-07-29T01:01:56;1.57;;;1.47;;
73575;SDS011;61859;49.204;8.140;2023-07-29T01:04:22;1.70;;;1.60;;
73575;SDS011;61859;49.204;8.140;2023-07-29T01:06:58;5.33;;;1.70;;
73575;SDS011;61859;49.204;8.140;2023-07-29T01:17:43;2.20;;;2.00;;
73575;SDS011;61859;49.204;8.140;2023-07-29T01:20:15;2.20;;;1.70;;
73575;SDS011;61859;49.204;8.140;2023-07-29T01:22:42;2.63;;;1.83;;
73575;SDS011;61859;49.204;8.140;2023-07-29T01:25:08;4.40;;;2.03;;
73575;SDS011;61859;49.204;8.140;2023-07-29T01:27:34;2.03;;;1.80;;
73575;SDS011;61859;49.204;8.140;2023-07-29T01:30:00;2.40;;;2.20;;
73575;SDS011;61859;49.204;8.140;2023-07-29T01:37:35;3.30;;;2.13;;
73575;SDS011;61859;49.204;8.140;2023-07-29T01:40:03;1.80;;;1.70;;
73575;SDS011;61859;49.204;8.140;2023-07-29T01:42:31;2.20;;;2.00;;
73575;SDS011;61859;49.204;8.140;2023-07-29T01:44:57;2.00;;;1.90;;
73575;SDS011;61859;49.204;8.140;2023-07-29T01:47:23;2.50;;;2.03;;
73575;SDS011;61859;49.204;8.140;2023-07-29T01:49:48;2.03;;;1.83;;
73575;SDS011;61859;49.204;8.140;2023-07-29T01:52:14;2.23;;;2.03;;
73575;SDS011;61859;49.204;8.140;2023-07-29T01:54:40;2.30;;;2.03;;
73575;SDS011;61859;49.204;8.140;2023-07-29T01:57:05;2.30;;;2.10;;
73575;SDS011;61859;49.204;8.140;2023-07-29T01:59:31;3.40;;;1.97;;
73575;SDS011;61859;49.204;8.140;2023-07-29T02:01:56;3.13;;;2.20;;
73575;SDS011;61859;49.204;8.140;2023-07-29T02:04:22;5.87;;;1.97;;
73575;SDS011;61859;49.204;8.140;2023-07-29T02:06:47;2.20;;;2.00;;
73575;SDS011;61859;49.204;8.140;2023-07-29T02:09:13;2.40;;;2.20;;
73575;SDS011;61859;49.204;8.140;2023-07-29T02:11:38;2.30;;;2.10;;
73575;SDS011;61859;49.204;8.140;2023-07-29T02:14:04;7.17;;;2.20;;
73575;SDS011;61859;49.204;8.140;2023-07-29T02:16:29;3.27;;;2.20;;
73575;SDS011;61859;49.204;8.140;2023-07-29T02:18:55;2.43;;;2.23;;
73575;SDS011;61859;49.204;8.140;2023-07-29T02:21:21;2.97;;;2.23;;
73575;SDS011;61859;49.204;8.140;2023-07-29T02:23:46;2.30;;;1.80;;
73575;SDS011;61859;49.204;8.140;2023-07-29T02:26:12;2.17;;;1.77;;
73575;SDS011;61859;49.204;8.140;2023-07-29T02:28:37;1.90;;;1.70;;
73575;SDS011;61859;49.204;8.140;2023-07-29T02:31:14;2.80;;;1.90;;
73575;SDS011;61859;49.204;8.140;2023-07-29T02:33:45;2.13;;;1.97;;
73575;SDS011;61859;49.204;8.140;2023-07-29T02:36:11;2.27;;;1.90;;
73575;SDS011;61859;49.204;8.140;2023-07-29T02:38:38;2.30;;;2.00;;
73575;SDS011;61859;49.204;8.140;2023-07-29T02:41:04;2.80;;;2.00;;
73575;SDS011;61859;49.204;8.140;2023-07-29T02:43:29;2.40;;;2.20;;
73575;SDS011;61859;49.204;8.140;2023-07-29T02:45:55;3.30;;;1.63;;
73575;SDS011;61859;49.204;8.140;2023-07-29T02:48:20;3.40;;;2.20;;
73575;SDS011;61859;49.204;8.140;2023-07-29T02:50:46;2.30;;;1.73;;
73575;SDS011;61859;49.204;8.140;2023-07-29T02:53:11;1.87;;;1.70;;
73575;SDS011;61859;49.204;8.140;2023-07-29T02:55:40;2.30;;;1.70;;
73575;SDS011;61859;49.204;8.140;2023-07-29T02:58:05;3.13;;;1.70;;
73575;SDS011;61859;49.204;8.140;2023-07-29T03:00:31;2.03;;;1.80;;
73575;SDS011;61859;49.204;8.140;2023-07-29T03:02:58;2.20;;;1.97;;
73575;SDS011;61859;49.204;8.140;2023-07-29T03:05:24;2.27;;;1.80;;
73575;SDS011;61859;49.204;8.140;2023-07-29T03:07:52;1.77;;;1.67;;
73575;SDS011;61859;49.204;8.140;2023-07-29T03:10:17;2.60;;;1.63;;
73575;SDS011;61859;49.204;8.140;2023-07-29T03:12:43;2.10;;;1.80;;
73575;SDS011;61859;49.204;8.140;2023-07-29T03:15:08;1.60;;;1.50;;
73575;SDS011;61859;49.204;8.140;2023-07-29T03:17:34;1.90;;;1.70;;
73575;SDS011;61859;49.204;8.140;2023-07-29T03:20:00;2.27;;;1.60;;
73575;SDS011;61859;49.204;8.140;2023-07-29T03:22:25;3.03;;;1.60;;
73575;SDS011;61859;49.204;8.140;2023-07-29T03:24:51;1.60;;;1.50;;
73575;SDS011;61859;49.204;8.140;2023-07-29T03:27:16;1.83;;;1.60;;
73575;SDS011;61859;49.204;8.140;2023-07-29T03:29:42;2.20;;;1.70;;
73575;SDS011;61859;49.204;8.140;2023-07-29T03:32:08;1.63;;;1.53;;
73575;SDS011;61859;49.204;8.140;2023-07-29T03:34:33;2.47;;;1.80;;
73575;SDS011;61859;49.204;8.140;2023-07-29T03:37:00;2.10;;;1.70;;
73575;SDS011;61859;49.204;8.140;2023-07-29T03:39:26;1.90;;;1.70;;
73575;SDS011;61859;49.204;8.140;2023-07-29T03:41:51;2.13;;;1.93;;
73575;SDS011;61859;49.204;8.140;2023-07-29T03:44:17;1.60;;;1.50;;
73575;SDS011;61859;49.204;8.140;2023-07-29T03:46:43;2.00;;;1.80;;
73575;SDS011;61859;49.204;8.140;2023-07-29T03:49:12;2.83;;;1.70;;
73575;SDS011;61859;49.204;8.140;2023-07-29T03:51:37;2.83;;;1.70;;
73575;SDS011;61859;49.204;8.140;2023-07-29T03:54:03;3.37;;;1.70;;
73575;SDS011;61859;49.204;8.140;2023-07-29T03:56:28;2.33;;;1.77;;
73575;SDS011;61859;49.204;8.140;2023-07-29T03:59:00;1.83;;;1.63;;
73575;SDS011;61859;49.204;8.140;2023-07-29T04:01:28;2.97;;;2.00;;
73575;SDS011;61859;49.204;8.140;2023-07-29T04:03:53;2.20;;;1.90;;
73575;SDS011;61859;49.204;8.140;2023-07-29T04:06:19;1.93;;;1.80;;
73575;SDS011;61859;49.204;8.140;2023-07-29T04:08:45;1.70;;;1.60;;
73575;SDS011;61859;49.204;8.140;2023-07-29T04:11:11;3.67;;;2.07;;
73575;SDS011;61859;49.204;8.140;2023-07-29T04:13:36;3.17;;;2.20;;
73575;SDS011;61859;49.204;8.140;2023-07-29T04:16:02;3.70;;;2.20;;
73575;SDS011;61859;49.204;8.140;2023-07-29T04:18:32;3.90;;;1.77;;
73575;SDS011;61859;49.204;8.140;2023-07-29T04:20:58;3.20;;;2.13;;
73575;SDS011;61859;49.204;8.140;2023-07-29T04:23:23;3.93;;;2.00;;
73575;SDS011;61859;49.204;8.140;2023-07-29T04:25:49;2.63;;;1.70;;
73575;SDS011;61859;49.204;8.140;2023-07-29T04:28:15;2.53;;;1.70;;
73575;SDS011;61859;49.204;8.140;2023-07-29T04:30:40;2.80;;;1.37;;
73575;SDS011;61859;49.204;8.140;2023-07-29T04:33:06;1.30;;;1.20;;
73575;SDS011;61859;49.204;8.140;2023-07-29T04:35:32;3.00;;;1.60;;
73575;SDS011;61859;49.204;8.140;2023-07-29T04:37:57;1.93;;;1.30;;
73575;SDS011;61859;49.204;8.140;2023-07-29T04:40:23;1.50;;;1.40;;
73575;SDS011;61859;49.204;8.140;2023-07-29T04:42:48;1.93;;;1.60;;
73575;SDS011;61859;49.204;8.140;2023-07-29T04:45:14;3.53;;;1.90;;
73575;SDS011;61859;49.204;8.140;2023-07-29T04:47:41;2.67;;;1.73;;
73575;SDS011;61859;49.204;8.140;2023-07-29T04:50:06;3.60;;;1.90;;
73575;SDS011;61859;49.204;8.140;2023-07-29T04:52:32;2.33;;;2.13;;
73575;SDS011;61859;49.204;8.140;2023-07-29T04:54:58;2.70;;;2.30;;
73575;SDS011;61859;49.204;8.140;2023-07-29T04:57:23;3.30;;;2.93;;
73575;SDS011;61859;49.204;8.140;2023-07-29T04:59:49;2.20;;;2.00;;
73575;SDS011;61859;49.204;8.140;2023-07-29T05:02:14;2.57;;;2.37;;
73575;SDS011;61859;49.204;8.140;2023-07-29T05:04:40;3.23;;;2.27;;
73575;SDS011;61859;49.204;8.140;2023-07-29T05:07:06;2.90;;;2.03;;
73575;SDS011;61859;49.204;8.140;2023-07-29T05:09:31;3.90;;;2.57;;
73575;SDS011;61859;49.204;8.140;2023-07-29T05:11:57;2.83;;;2.30;;
73575;SDS011;61859;49.204;8.140;2023-07-29T05:14:22;2.70;;;2.40;;
73575;SDS011;61859;49.204;8.140;2023-07-29T05:16:48;2.37;;;2.13;;
73575;SDS011;61859;49.204;8.140;2023-07-29T05:19:14;2.53;;;2.07;;
73575;SDS011;61859;49.204;8.140;2023-07-29T05:21:40;2.77;;;2.07;;
73575;SDS011;61859;49.204;8.140;2023-07-29T05:24:06;3.73;;;2.10;;
73575;SDS011;61859;49.204;8.140;2023-07-29T05:26:31;2.70;;;2.17;;
73575;SDS011;61859;49.204;8.140;2023-07-29T05:28:57;3.97;;;2.47;;
73575;SDS011;61859;49.204;8.140;2023-07-29T05:31:23;2.40;;;2.20;;
73575;SDS011;61859;49.204;8.140;2023-07-29T05:33:48;2.37;;;2.03;;
73575;SDS011;61859;49.204;8.140;2023-07-29T05:36:14;2.27;;;2.07;;
73575;SDS011;61859;49.204;8.140;2023-07-29T05:38:39;3.23;;;1.83;;
73575;SDS011;61859;49.204;8.140;2023-07-29T05:41:05;3.83;;;1.90;;
73575;SDS011;61859;49.204;8.140;2023-07-29T05:43:30;2.33;;;2.13;;
73575;SDS011;61859;49.204;8.140;2023-07-29T05:45:56;2.30;;;2.10;;
73575;SDS011;61859;49.204;8.140;2023-07-29T05:48:21;2.43;;;1.97;;
73575;SDS011;61859;49.204;8.140;2023-07-29T05:50:47;1.87;;;1.77;;
73575;SDS011;61859;49.204;8.140;2023-07-29T05:53:13;2.33;;;1.90;;
73575;SDS011;61859;49.204;8.140;2023-07-29T05:55:39;2.03;;;1.83;;
73575;SDS011;61859;49.204;8.140;2023-07-29T05:58:05;1.93;;;1.50;;
73575;SDS011;61859;49.204;8.140;2023-07-29T06:00:30;2.00;;;1.80;;
73575;SDS011;61859;49.204;8.140;2023-07-29T06:02:56;3.87;;;1.57;;
73575;SDS011;61859;49.204;8.140;2023-07-29T06:05:22;1.73;;;1.63;;
73575;SDS011;61859;49.204;8.140;2023-07-29T06:07:47;2.43;;;1.50;;
73575;SDS011;61859;49.204;8.140;2023-07-29T06:10:14;1.47;;;1.37;;
73575;SDS011;61859;49.204;8.140;2023-07-29T06:12:43;1.83;;;1.37;;
73575;SDS011;61859;49.204;8.140;2023-07-29T06:15:10;1.50;;;1.40;;
73575;SDS011;61859;49.204;8.140;2023-07-29T06:17:35;1.70;;;1.50;;
73575;SDS011;61859;49.204;8.140;2023-07-29T06:20:01;4.10;;;1.47;;
73575;SDS011;61859;49.204;8.140;2023-07-29T06:22:27;1.40;;;1.30;;
73575;SDS011;61859;49.204;8.140;2023-07-29T06:24:53;3.07;;;1.40;;
73575;SDS011;61859;49.204;8.140;2023-07-29T06:27:18;1.20;;;1.10;;
73575;SDS011;61859;49.204;8.140;2023-07-29T06:29:44;1.00;;;0.90;;
73575;SDS011;61859;49.204;8.140;2023-07-29T06:32:09;1.10;;;1.00;;
73575;SDS011;61859;49.204;8.140;2023-07-29T06:34:35;1.23;;;1.13;;
73575;SDS011;61859;49.204;8.140;2023-07-29T06:37:00;2.10;;;1.13;;
73575;SDS011;61859;49.204;8.140;2023-07-29T06:39:26;3.20;;;1.10;;
73575;SDS011;61859;49.204;8.140;2023-07-29T06:41:51;1.20;;;1.10;;
73575;SDS011;61859;49.204;8.140;2023-07-29T06:44:17;2.90;;;1.40;;
73575;SDS011;61859;49.204;8.140;2023-07-29T06:46:42;1.33;;;1.13;;
73575;SDS011;61859;49.204;8.140;2023-07-29T06:49:08;1.20;;;1.20;;
73575;SDS011;61859;49.204;8.140;2023-07-29T06:51:33;1.40;;;1.30;;
73575;SDS011;61859;49.204;8.140;2023-07-29T06:54:00;1.40;;;1.30;;
73575;SDS011;61859;49.204;8.140;2023-07-29T06:56:28;1.17;;;1.07;;
73575;SDS011;61859;49.204;8.140;2023-07-29T06:58:54;2.03;;;1.03;;
73575;SDS011;61859;49.204;8.140;2023-07-29T07:01:20;1.43;;;1.07;;
73575;SDS011;61859;49.204;8.140;2023-07-29T07:03:45;2.13;;;0.93;;
73575;SDS011;61859;49.204;8.140;2023-07-29T07:06:11;1.03;;;1.00;;
73575;SDS011;61859;49.204;8.140;2023-07-29T07:08:36;2.33;;;0.97;;
73575;SDS011;61859;49.204;8.140;2023-07-29T07:11:02;1.10;;;0.90;;
73575;SDS011;61859;49.204;8.140;2023-07-29T07:13:27;1.30;;;1.00;;
73575;SDS011;61859;49.204;8.140;2023-07-29T07:15:56;1.20;;;1.10;;
73575;SDS011;61859;49.204;8.140;2023-07-29T07:18:22;1.30;;;1.20;;
73575;SDS011;61859;49.204;8.140;2023-07-29T07:20:48;1.63;;;1.30;;
73575;SDS011;61859;49.204;8.140;2023-07-29T07:23:14;1.40;;;1.10;;
73575;SDS011;61859;49.204;8.140;2023-07-29T07:25:40;1.37;;;1.27;;
73575;SDS011;61859;49.204;8.140;2023-07-29T07:28:07;1.43;;;1.33;;
73575;SDS011;61859;49.204;8.140;2023-07-29T07:30:39;2.80;;;1.03;;
73575;SDS011;61859;49.204;8.140;2023-07-29T07:33:08;1.00;;;1.00;;
73575;SDS011;61859;49.204;8.140;2023-07-29T07:35:34;1.23;;;1.13;;
73575;SDS011;61859;49.204;8.140;2023-07-29T07:37:59;2.33;;;1.00;;
73575;SDS011;61859;49.204;8.140;2023-07-29T07:40:27;1.43;;;1.33;;
73575;SDS011;61859;49.204;8.140;2023-07-29T07:42:52;1.80;;;1.00;;
73575;SDS011;61859;49.204;8.140;2023-07-29T07:45:18;1.20;;;1.00;;
73575;SDS011;61859;49.204;8.140;2023-07-29T07:47:44;1.10;;;1.00;;
73575;SDS011;61859;49.204;8.140;2023-07-29T07:50:10;2.00;;;0.93;;
73575;SDS011;61859;49.204;8.140;2023-07-29T07:52:35;1.37;;;1.10;;
73575;SDS011;61859;49.204;8.140;2023-07-29T07:55:01;0.90;;;0.90;;
73575;SDS011;61859;49.204;8.140;2023-07-29T07:57:27;1.10;;;0.90;;
73575;SDS011;61859;49.204;8.140;2023-07-29T07:59:52;2.47;;;1.20;;
73575;SDS011;61859;49.204;8.140;2023-07-29T08:02:18;1.17;;;1.07;;
73575;SDS011;61859;49.204;8.140;2023-07-29T08:04:44;1.40;;;1.30;;
73575;SDS011;61859;49.204;8.140;2023-07-29T08:07:09;2.60;;;0.80;;
73575;SDS011;61859;49.204;8.140;2023-07-29T08:09:35;3.60;;;1.00;;
73575;SDS011;61859;49.204;8.140;2023-07-29T08:12:00;0.90;;;0.90;;
73575;SDS011;61859;49.204;8.140;2023-07-29T08:14:26;0.70;;;0.70;;
73575;SDS011;61859;49.204;8.140;2023-07-29T08:16:52;1.70;;;1.00;;
73575;SDS011;61859;49.204;8.140;2023-07-29T08:19:17;0.93;;;0.93;;
73575;SDS011;61859;49.204;8.140;2023-07-29T08:21:43;1.10;;;1.00;;
73575;SDS011;61859;49.204;8.140;2023-07-29T08:24:08;1.70;;;1.10;;
73575;SDS011;61859;49.204;8.140;2023-07-29T08:26:34;0.90;;;0.90;;
73575;SDS011;61859;49.204;8.140;2023-07-29T08:28:59;0.83;;;0.83;;
73575;SDS011;61859;49.204;8.140;2023-07-29T08:31:25;0.90;;;0.90;;
73575;SDS011;61859;49.204;8.140;2023-07-29T08:33:51;1.07;;;0.93;;
73575;SDS011;61859;49.204;8.140;2023-07-29T08:36:16;0.80;;;0.80;;
73575;SDS011;61859;49.204;8.140;2023-07-29T08:38:42;0.65;;;0.65;;
73575;SDS011;61859;49.204;8.140;2023-07-29T08:41:14;0.82;;;0.68;;
73575;SDS011;61859;49.204;8.140;2023-07-29T08:43:48;0.85;;;0.73;;
73575;SDS011;61859;49.204;8.140;2023-07-29T08:46:36;0.60;;;0.60;;
73575;SDS011;61859;49.204;8.140;2023-07-29T08:49:03;1.50;;;1.05;;
73575;SDS011;61859;49.204;8.140;2023-07-29T08:51:29;0.95;;;0.75;;
73575;SDS011;61859;49.204;8.140;2023-07-29T08:53:57;1.33;;;0.60;;
73575;SDS011;61859;49.204;8.140;2023-07-29T08:56:24;0.80;;;0.70;;
73575;SDS011;61859;49.204;8.140;2023-07-29T08:58:49;0.70;;;0.70;;
73575;SDS011;61859;49.204;8.140;2023-07-29T09:01:15;1.33;;;0.95;;
73575;SDS011;61859;49.204;8.140;2023-07-29T09:03:41;1.10;;;1.00;;
73575;SDS011;61859;49.204;8.140;2023-07-29T09:06:07;2.47;;;1.10;;
73575;SDS011;61859;49.204;8.140;2023-07-29T09:08:33;1.35;;;0.77;;
73575;SDS011;61859;49.204;8.140;2023-07-29T09:11:00;0.80;;;0.80;;
73575;SDS011;61859;49.204;8.140;2023-07-29T09:13:26;2.85;;;1.02;;
73575;SDS011;61859;49.204;8.140;2023-07-29T09:15:55;0.80;;;0.80;;
73575;SDS011;61859;49.204;8.140;2023-07-29T09:18:22;1.05;;;1.00;;
73575;SDS011;61859;49.204;8.140;2023-07-29T09:20:48;1.15;;;1.00;;
73575;SDS011;61859;49.204;8.140;2023-07-29T09:23:15;1.08;;;1.00;;
73575;SDS011;61859;49.204;8.140;2023-07-29T09:25:40;0.98;;;0.98;;
73575;SDS011;61859;49.204;8.140;2023-07-29T09:28:14;2.08;;;0.85;;
73575;SDS011;61859;49.204;8.140;2023-07-29T09:30:41;2.80;;;0.90;;
73575;SDS011;61859;49.204;8.140;2023-07-29T09:33:08;0.88;;;0.88;;
73575;SDS011;61859;49.204;8.140;2023-07-29T09:35:34;2.90;;;0.90;;
73575;SDS011;61859;49.204;8.140;2023-07-29T09:38:04;2.55;;;1.00;;
73575;SDS011;61859;49.204;8.140;2023-07-29T09:40:35;1.00;;;0.70;;
73575;SDS011;61859;49.204;8.140;2023-07-29T09:43:02;0.90;;;0.90;;
73575;SDS011;61859;49.204;8.140;2023-07-29T09:45:29;0.98;;;0.90;;
73575;SDS011;61859;49.204;8.140;2023-07-29T09:47:56;1.13;;;1.02;;
73575;SDS011;61859;49.204;8.140;2023-07-29T09:50:25;0.82;;;0.82;;
73575;SDS011;61859;49.204;8.140;2023-07-29T09:52:52;0.80;;;0.80;;
73575;SDS011;61859;49.204;8.140;2023-07-29T09:55:19;0.77;;;0.77;;
73575;SDS011;61859;49.204;8.140;2023-07-29T09:57:48;0.70;;;0.70;;
73575;SDS011;61859;49.204;8.140;2023-07-29T10:00:21;1.25;;;1.15;;
73575;SDS011;61859;49.204;8.140;2023-07-29T10:02:46;0.95;;;0.85;;
73575;SDS011;61859;49.204;8.140;2023-07-29T10:05:12;0.77;;;0.68;;
73575;SDS011;61859;49.204;8.140;2023-07-29T10:07:39;0.68;;;0.68;;
73575;SDS011;61859;49.204;8.140;2023-07-29T10:10:05;1.30;;;0.98;;
73575;SDS011;61859;49.204;8.140;2023-07-29T10:12:31;1.40;;;0.93;;
73575;SDS011;61859;49.204;8.140;2023-07-29T10:14:58;0.82;;;0.82;;
73575;SDS011;61859;49.204;8.140;2023-07-29T10:17:27;1.92;;;0.80;;
73575;SDS011;61859;49.204;8.140;2023-07-29T10:19:54;0.70;;;0.70;;
73575;SDS011;61859;49.204;8.140;2023-07-29T10:22:22;1.58;;;0.77;;
73575;SDS011;61859;49.204;8.140;2023-07-29T10:24:53;0.70;;;0.70;;
73575;SDS011;61859;49.204;8.140;2023-07-29T10:27:21;4.25;;;0.90;;
73575;SDS011;61859;49.204;8.140;2023-07-29T10:29:49;0.82;;;0.82;;
73575;SDS011;61859;49.204;8.140;2023-07-29T10:32:17;1.65;;;0.95;;
73575;SDS011;61859;49.204;8.140;2023-07-29T10:34:44;0.75;;;0.75;;
73575;SDS011;61859;49.204;8.140;2023-07-29T10:37:09;0.68;;;0.68;;
73575;SDS011;61859;49.204;8.140;2023-07-29T10:39:39;0.40;;;0.40;;
73575;SDS011;61859;49.204;8.140;2023-07-29T10:42:06;1.30;;;1.00;;
73575;SDS011;61859;49.204;8.140;2023-07-29T10:47:29;1.33;;;1.23;;
73575;SDS011;61859;49.204;8.140;2023-07-29T10:49:58;1.17;;;0.98;;
73575;SDS011;61859;49.204;8.140;2023-07-29T10:52:28;2.08;;;1.15;;
73575;SDS011;61859;49.204;8.140;2023-07-29T10:55:00;0.90;;;0.88;;
73575;SDS011;61859;49.204;8.140;2023-07-29T10:57:33;1.17;;;1.13;;
73575;SDS011;61859;49.204;8.140;2023-07-29T11:00:00;1.23;;;1.00;;
73575;SDS011;61859;49.204;8.140;2023-07-29T11:02:30;1.00;;;0.93;;
73575;SDS011;61859;49.204;8.140;2023-07-29T11:04:57;2.10;;;1.10;;
73575;SDS011;61859;49.204;8.140;2023-07-29T11:07:24;2.22;;;0.98;;
73575;SDS011;61859;49.204;8.140;2023-07-29T11:09:58;2.67;;;1.10;;
73575;SDS011;61859;49.204;8.140;2023-07-29T11:12:35;1.77;;;0.95;;
73575;SDS011;61859;49.204;8.140;2023-07-29T11:20:09;1.38;;;1.10;;
73575;SDS011;61859;49.204;8.140;2023-07-29T11:22:36;1.20;;;1.10;;
73575;SDS011;61859;49.204;8.140;2023-07-29T11:25:02;0.90;;;0.90;;
73575;SDS011;61859;49.204;8.140;2023-07-29T11:27:28;0.88;;;0.88;;
73575;SDS011;61859;49.204;8.140;2023-07-29T11:29:57;1.48;;;1.20;;
73575;SDS011;61859;49.204;8.140;2023-07-29T11:32:26;1.98;;;1.00;;
73575;SDS011;61859;49.204;8.140;2023-07-29T11:34:52;0.77;;;0.77;;
73575;SDS011;61859;49.204;8.140;2023-07-29T11:37:18;0.95;;;0.95;;
73575;SDS011;61859;49.204;8.140;2023-07-29T11:39:45;0.93;;;0.82;;
73575;SDS011;61859;49.204;8.140;2023-07-29T11:42:11;1.00;;;0.90;;
73575;SDS011;61859;49.204;8.140;2023-07-29T11:44:37;1.30;;;1.15;;
73575;SDS011;61859;49.204;8.140;2023-07-29T11:47:09;1.52;;;0.90;;
73575;SDS011;61859;49.204;8.140;2023-07-29T11:49:35;0.70;;;0.70;;
73575;SDS011;61859;49.204;8.140;2023-07-29T11:52:03;1.00;;;1.00;;
73575;SDS011;61859;49.204;8.140;2023-07-29T11:54:30;0.98;;;0.90;;
73575;SDS011;61859;49.204;8.140;2023-07-29T11:56:56;1.10;;;1.00;;
73575;SDS011;61859;49.204;8.140;2023-07-29T11:59:22;1.95;;;0.80;;
73575;SDS011;61859;49.204;8.140;2023-07-29T12:01:48;1.27;;;1.17;;
73575;SDS011;61859;49.204;8.140;2023-07-29T12:04:14;0.93;;;0.73;;
73575;SDS011;61859;49.204;8.140;2023-07-29T12:06:40;1.05;;;0.95;;
73575;SDS011;61859;49.204;8.140;2023-07-29T12:09:06;0.93;;;0.80;;
73575;SDS011;61859;49.204;8.140;2023-07-29T12:11:32;0.85;;;0.85;;
73575;SDS011;61859;49.204;8.140;2023-07-29T12:13:59;1.27;;;0.77;;
73575;SDS011;61859;49.204;8.140;2023-07-29T12:16:25;1.20;;;0.70;;
73575;SDS011;61859;49.204;8.140;2023-07-29T12:18:50;0.75;;;0.57;;
73575;SDS011;61859;49.204;8.140;2023-07-29T12:21:17;0.80;;;0.80;;
73575;SDS011;61859;49.204;8.140;2023-07-29T12:23:43;1.08;;;0.93;;
73575;SDS011;61859;49.204;8.140;2023-07-29T12:26:09;0.98;;;0.98;;
73575;SDS011;61859;49.204;8.140;2023-07-29T12:28:35;1.27;;;0.90;;
73575;SDS011;61859;49.204;8.140;2023-07-29T12:31:00;0.90;;;0.90;;
73575;SDS011;61859;49.204;8.140;2023-07-29T12:33:33;1.13;;;0.85;;
73575;SDS011;61859;49.204;8.140;2023-07-29T12:36:01;0.75;;;0.75;;
73575;SDS011;61859;49.204;8.140;2023-07-29T12:38:27;1.02;;;0.77;;
73575;SDS011;61859;49.204;8.140;2023-07-29T12:40:53;0.73;;;0.73;;
73575;SDS011;61859;49.204;8.140;2023-07-29T12:43:19;0.95;;;0.90;;
73575;SDS011;61859;49.204;8.140;2023-07-29T12:45:44;2.35;;;0.80;;
73575;SDS011;61859;49.204;8.140;2023-07-29T12:48:10;1.30;;;1.02;;
73575;SDS011;61859;49.204;8.140;2023-07-29T12:50:36;1.60;;;1.10;;
73575;SDS011;61859;49.204;8.140;2023-07-29T12:53:02;0.90;;;0.90;;
73575;SDS011;61859;49.204;8.140;2023-07-29T12:55:29;1.02;;;1.00;;
73575;SDS011;61859;49.204;8.140;2023-07-29T12:57:54;0.80;;;0.80;;
73575;SDS011;61859;49.204;8.140;2023-07-29T13:00:20;1.25;;;1.10;;
73575;SDS011;61859;49.204;8.140;2023-07-29T13:02:45;0.73;;;0.70;;
73575;SDS011;61859;49.204;8.140;2023-07-29T13:05:11;0.85;;;0.85;;
73575;SDS011;61859;49.204;8.140;2023-07-29T13:07:40;1.75;;;0.65;;
73575;SDS011;61859;49.204;8.140;2023-07-29T13:10:07;0.90;;;0.90;;
73575;SDS011;61859;49.204;8.140;2023-07-29T13:12:34;0.93;;;0.93;;
73575;SDS011;61859;49.204;8.140;2023-07-29T13:14:59;0.95;;;0.68;;
73575;SDS011;61859;49.204;8.140;2023-07-29T13:17:25;1.52;;;0.80;;
73575;SDS011;61859;49.204;8.140;2023-07-29T13:19:50;1.20;;;1.13;;
73575;SDS011;61859;49.204;8.140;2023-07-29T13:22:16;1.10;;;0.90;;
73575;SDS011;61859;49.204;8.140;2023-07-29T13:24:42;0.90;;;0.90;;
73575;SDS011;61859;49.204;8.140;2023-07-29T13:27:07;1.10;;;1.00;;
73575;SDS011;61859;49.204;8.140;2023-07-29T13:29:33;0.90;;;0.90;;
73575;SDS011;61859;49.204;8.140;2023-07-29T13:31:59;1.50;;;0.80;;
73575;SDS011;61859;49.204;8.140;2023-07-29T13:34:24;0.88;;;0.82;;
73575;SDS011;61859;49.204;8.140;2023-07-29T13:36:50;1.08;;;1.08;;
73575;SDS011;61859;49.204;8.140;2023-07-29T13:39:15;2.20;;;0.90;;
73575;SDS011;61859;49.204;8.140;2023-07-29T13:41:41;2.28;;;1.30;;
73575;SDS011;61859;49.204;8.140;2023-07-29T13:44:07;2.38;;;2.17;;
73575;SDS011;61859;49.204;8.140;2023-07-29T13:46:32;0.80;;;0.80;;
73575;SDS011;61859;49.204;8.140;2023-07-29T13:48:58;0.85;;;0.65;;
73575;SDS011;61859;49.204;8.140;2023-07-29T13:51:23;1.20;;;0.95;;
73575;SDS011;61859;49.204;8.140;2023-07-29T13:53:49;1.95;;;0.90;;
73575;SDS011;61859;49.204;8.140;2023-07-29T13:56:14;0.93;;;0.90;;
73575;SDS011;61859;49.204;8.140;2023-07-29T13:58:40;1.10;;;0.80;;
73575;SDS011;61859;49.204;8.140;2023-07-29T14:01:06;2.10;;;0.98;;
73575;SDS011;61859;49.204;8.140;2023-07-29T14:03:31;1.23;;;0.80;;
73575;SDS011;61859;49.204;8.140;2023-07-29T14:05:57;0.80;;;0.80;;
73575;SDS011;61859;49.204;8.140;2023-07-29T14:08:22;1.17;;;0.90;;
73575;SDS011;61859;49.204;8.140;2023-07-29T14:10:51;1.73;;;1.05;;
73575;SDS011;61859;49.204;8.140;2023-07-29T14:13:16;1.05;;;0.95;;
73575;SDS011;61859;49.204;8.140;2023-07-29T14:15:42;1.48;;;0.80;;
73575;SDS011;61859;49.204;8.140;2023-07-29T14:18:07;1.10;;;1.00;;
73575;SDS011;61859;49.204;8.140;2023-07-29T14:20:33;0.95;;;0.95;;
73575;SDS011;61859;49.204;8.140;2023-07-29T14:22:59;4.20;;;0.93;;
73575;SDS011;61859;49.204;8.140;2023-07-29T14:25:24;1.65;;;1.10;;
73575;SDS011;61859;49.204;8.140;2023-07-29T14:27:50;0.93;;;0.82;;
73575;SDS011;61859;49.204;8.140;2023-07-29T14:30:15;0.88;;;0.88;;
73575;SDS011;61859;49.204;8.140;2023-07-29T14:32:41;1.00;;;0.90;;
73575;SDS011;61859;49.204;8.140;2023-07-29T14:35:07;1.70;;;1.00;;
73575;SDS011;61859;49.204;8.140;2023-07-29T14:37:33;1.90;;;1.10;;
73575;SDS011;61859;49.204;8.140;2023-07-29T14:39:59;1.20;;;1.10;;
73575;SDS011;61859;49.204;8.140;2023-07-29T14:42:24;0.80;;;0.80;;
73575;SDS011;61859;49.204;8.140;2023-07-29T14:44:50;1.35;;;1.00;;
73575;SDS011;61859;49.204;8.140;2023-07-29T14:47:16;1.20;;;1.00;;
73575;SDS011;61859;49.204;8.140;2023-07-29T14:49:41;1.05;;;1.05;;
73575;SDS011;61859;49.204;8.140;2023-07-29T14:52:07;2.33;;;1.30;;
73575;SDS011;61859;49.204;8.140;2023-07-29T14:54:32;0.70;;;0.70;;
73575;SDS011;61859;49.204;8.140;2023-07-29T14:56:58;0.80;;;0.80;;
73575;SDS011;61859;49.204;8.140;2023-07-29T14:59:24;1.20;;;1.10;;
73575;SDS011;61859;49.204;8.140;2023-07-29T15:01:49;0.90;;;0.90;;
73575;SDS011;61859;49.204;8.140;2023-07-29T15:04:15;1.85;;;1.10;;